Abilene, Kansas
Current Conditions -  °F | °C
As of 6:53 PM on Thursday 27 Nov 2014 (Local Time) from KSLN Reporting Station
Clear Clear  
Wind Chill: 30°   Ceiling: Unl
Heat Index: 37°   Visibility: 10mi
Dew Point: 18°   Wind: 9mph
Humidity: 46%   Direction: 140°SE
Pressure: 30.23"   Gusts: NA
Location:  38.92°N, 97.21°W
Report Text: KSLN 280053Z 14008KT 10SM CLR 03/M08 A3023 RMK AO2 SLP250 T00281078
Loading
Personal Weather Stations






























Interactive Weather Map New forecast layout! Learn more

10-Day Weather Forecast

Advertisements
Track Severe Weather on mobile